createdAt,value
2023-04-04T00:00:53.721Z,100979.44
2023-04-04T00:03:21.634Z,100970.56
2023-04-04T00:05:52.373Z,100979.00
2023-04-04T00:08:21.348Z,100969.38
2023-04-04T00:10:49.139Z,100971.69
2023-04-04T00:13:17.208Z,100965.53
2023-04-04T00:15:45.310Z,100967.81
2023-04-04T00:18:13.517Z,100977.84
2023-04-04T00:20:41.425Z,100967.38
2023-04-04T00:23:11.224Z,100967.13
2023-04-04T00:25:39.125Z,100960.94
2023-04-04T00:28:07.221Z,100972.78
2023-04-04T00:30:35.262Z,100969.22
2023-04-04T00:33:03.662Z,100973.28
2023-04-04T00:35:31.300Z,100969.72
2023-04-04T00:37:58.853Z,100973.91
2023-04-04T00:40:26.764Z,100972.91
2023-04-04T00:42:55.454Z,100973.75
2023-04-04T00:45:23.253Z,100962.31
2023-04-04T00:47:51.278Z,100969.06
2023-04-04T00:50:19.639Z,100966.41
2023-04-04T00:52:47.797Z,100962.06
2023-04-04T00:55:16.668Z,100957.69
2023-04-04T00:57:44.800Z,100954.88
2023-04-04T01:00:12.765Z,100952.03
2023-04-04T01:02:40.987Z,100956.16
2023-04-04T01:05:09.385Z,100955.28
2023-04-04T01:07:37.298Z,100953.50
2023-04-04T01:10:06.614Z,100957.00
2023-04-04T01:12:34.180Z,100962.13
2023-04-04T01:15:02.496Z,100957.72
2023-04-04T01:17:30.686Z,100953.34
2023-04-04T01:20:08.114Z,100959.31
2023-04-04T01:22:36.185Z,100958.13
2023-04-04T01:25:03.975Z,100950.41
2023-04-04T01:27:31.549Z,100957.16
2023-04-04T01:29:59.695Z,100966.22
2023-04-04T01:32:51.704Z,100967.88
2023-04-04T01:35:21.553Z,100963.56
2023-04-04T01:38:06.928Z,100970.25
2023-04-04T01:40:39.950Z,100971.88
2023-04-04T01:43:07.956Z,100972.47
2023-04-04T01:45:36.373Z,100977.50
2023-04-04T01:48:04.712Z,100980.03
2023-04-04T01:50:32.050Z,100981.66
2023-04-04T01:53:00.201Z,100984.13
2023-04-04T01:55:28.117Z,100976.38
2023-04-04T01:57:55.504Z,100984.81
2023-04-04T02:00:23.746Z,100987.47
2023-04-04T02:02:51.737Z,100987.38
2023-04-04T02:05:19.335Z,100979.41
2023-04-04T02:07:50.844Z,100982.06
2023-04-04T02:10:18.620Z,100980.34
2023-04-04T02:12:47.782Z,100979.16
2023-04-04T02:15:16.042Z,100979.84
2023-04-04T02:17:48.620Z,100986.94
2023-04-04T02:20:19.345Z,100988.66
2023-04-04T02:23:14.881Z,100980.09
2023-04-04T02:25:42.961Z,100980.84
2023-04-04T02:28:11.795Z,100988.38
2023-04-04T02:30:40.502Z,100985.66
2023-04-04T02:33:08.892Z,100976.16
2023-04-04T02:35:40.892Z,100983.72
2023-04-04T02:38:08.851Z,100982.59
2023-04-04T02:40:40.081Z,100982.59
2023-04-04T02:43:07.885Z,100981.75
2023-04-04T02:45:35.419Z,100986.19
2023-04-04T02:48:03.948Z,100986.66
2023-04-04T02:50:31.882Z,100980.50
2023-04-04T02:53:03.664Z,100980.22
2023-04-04T02:55:31.510Z,100982.56
2023-04-04T02:57:59.257Z,100984.78
2023-04-04T03:00:27.339Z,100986.78
2023-04-04T03:02:55.916Z,100986.38
2023-04-04T03:05:26.982Z,100991.09
2023-04-04T03:07:59.112Z,100992.50
2023-04-04T03:10:29.969Z,100990.44
2023-04-04T03:12:57.709Z,100990.31
2023-04-04T03:15:26.591Z,100994.47
2023-04-04T03:17:54.055Z,100994.16
2023-04-04T03:20:22.197Z,100992.97
2023-04-04T03:22:49.749Z,100996.25
2023-04-04T03:25:17.728Z,100993.16
2023-04-04T03:27:45.485Z,100989.28
2023-04-04T03:30:14.373Z,100983.25
2023-04-04T03:32:42.269Z,100990.34
2023-04-04T03:35:10.043Z,100988.97
2023-04-04T03:37:39.133Z,100988.31
2023-04-04T03:40:09.720Z,100993.09
2023-04-04T03:42:37.936Z,100998.06
2023-04-04T03:45:07.443Z,100996.78
2023-04-04T03:47:35.499Z,100994.88
2023-04-04T03:50:03.773Z,100994.97
2023-04-04T03:52:31.257Z,101001.38
2023-04-04T03:54:59.454Z,101002.06
2023-04-04T03:57:28.440Z,101003.81
2023-04-04T03:59:56.485Z,101005.97
2023-04-04T04:02:24.372Z,100998.22
2023-04-04T04:04:53.921Z,101005.63
2023-04-04T04:07:21.625Z,101009.78
2023-04-04T04:09:49.843Z,101011.28
2023-04-04T04:12:17.754Z,101010.19
2023-04-04T04:14:45.611Z,101010.09
2023-04-04T04:17:13.377Z,101018.88
2023-04-04T04:19:41.204Z,101012.09
2023-04-04T04:22:09.526Z,101013.69
2023-04-04T04:24:37.079Z,101012.72
2023-04-04T04:27:05.427Z,101016.41
2023-04-04T04:29:33.366Z,101012.34
2023-04-04T04:32:01.877Z,101015.53
2023-04-04T04:34:29.840Z,101018.16
2023-04-04T04:36:57.983Z,101020.97
2023-04-04T04:39:26.174Z,101025.22
2023-04-04T04:41:53.974Z,101030.47
2023-04-04T04:44:22.442Z,101030.47
2023-04-04T04:46:50.413Z,101032.25
2023-04-04T04:49:17.996Z,101031.34
2023-04-04T04:51:45.772Z,101037.88
2023-04-04T04:54:13.869Z,101032.69
2023-04-04T04:56:41.945Z,101037.00
2023-04-04T04:59:11.639Z,101035.09
2023-04-04T05:01:39.729Z,101040.09
2023-04-04T05:04:07.803Z,101037.47
2023-04-04T05:06:35.961Z,101040.09
2023-04-04T05:09:05.050Z,101047.06
2023-04-04T05:11:33.178Z,101040.53
2023-04-04T05:14:00.908Z,101043.22
2023-04-04T05:16:29.117Z,101045.25
2023-04-04T05:18:57.299Z,101049.63
2023-04-04T05:21:25.428Z,101043.84
2023-04-04T05:23:53.477Z,101046.44
2023-04-04T05:26:21.489Z,101058.59
2023-04-04T05:28:49.635Z,101057.19
2023-04-04T05:31:17.257Z,101055.91
2023-04-04T05:33:45.703Z,101064.09
2023-04-04T05:36:13.447Z,101067.84
2023-04-04T05:38:41.365Z,101061.44
2023-04-04T05:41:09.379Z,101072.78
2023-04-04T05:43:37.089Z,101069.66
2023-04-04T05:46:05.497Z,101072.63
2023-04-04T05:48:33.192Z,101071.25
2023-04-04T05:51:01.063Z,101077.72
2023-04-04T05:53:28.680Z,101072.06
2023-04-04T05:55:56.600Z,101077.25
2023-04-04T05:58:24.836Z,101081.66
2023-04-04T06:00:52.620Z,101078.44
2023-04-04T06:03:22.482Z,101077.16
2023-04-04T06:05:53.516Z,101076.59
2023-04-04T06:08:21.319Z,101073.06
2023-04-04T06:10:48.921Z,101081.78
2023-04-04T06:13:16.853Z,101082.88
2023-04-04T06:15:44.996Z,101074.72
2023-04-04T06:18:13.122Z,101072.59
2023-04-04T06:20:41.990Z,101079.78
2023-04-04T06:23:10.378Z,101085.03
2023-04-04T06:25:38.296Z,101081.19
2023-04-04T06:28:06.914Z,101080.72
2023-04-04T06:30:40.162Z,101083.56
2023-04-04T06:33:07.828Z,101092.50
2023-04-04T06:35:35.555Z,101085.91
2023-04-04T06:38:04.384Z,101090.69
2023-04-04T06:40:32.476Z,101090.00
2023-04-04T06:43:00.363Z,101087.56
2023-04-04T06:45:28.512Z,101093.81
2023-04-04T06:47:56.276Z,101094.97
2023-04-04T06:50:24.089Z,101101.41
2023-04-04T06:52:52.085Z,101102.34
2023-04-04T06:55:20.227Z,101093.91
2023-04-04T06:57:48.386Z,101102.72
2023-04-04T07:00:19.020Z,101098.72
2023-04-04T07:02:47.004Z,101098.22
2023-04-04T07:05:17.850Z,101100.22
2023-04-04T07:07:47.143Z,101091.88
2023-04-04T07:10:15.092Z,101086.06
2023-04-04T07:12:43.451Z,101091.38
2023-04-04T07:15:13.288Z,101090.78
2023-04-04T07:17:41.660Z,101090.19
2023-04-04T07:20:10.554Z,101087.00
2023-04-04T07:22:39.865Z,101083.19
2023-04-04T07:25:09.815Z,101095.66
2023-04-04T07:27:37.670Z,101090.78
2023-04-04T07:30:05.492Z,101095.22
2023-04-04T07:32:35.941Z,101093.78
2023-04-04T07:35:05.266Z,101094.97
2023-04-04T07:37:33.640Z,101097.81
2023-04-04T07:40:01.660Z,101098.00
2023-04-04T07:42:31.270Z,101110.03
2023-04-04T07:44:59.500Z,101109.50
2023-04-04T07:47:27.827Z,101102.03
2023-04-04T07:49:55.585Z,101106.31
2023-04-04T07:52:23.270Z,101111.69
2023-04-04T07:54:51.904Z,101110.28
2023-04-04T07:57:20.092Z,101104.69
2023-04-04T07:59:48.576Z,101104.03
2023-04-04T08:02:17.844Z,101103.41
2023-04-04T08:04:46.072Z,101110.31
2023-04-04T08:07:14.393Z,101102.84
2023-04-04T08:09:42.506Z,101103.16
2023-04-04T08:12:09.963Z,101113.66
2023-04-04T08:14:37.650Z,101112.13
2023-04-04T08:17:05.597Z,101106.13
2023-04-04T08:19:33.084Z,101102.91
2023-04-04T08:22:01.186Z,101104.94
2023-04-04T08:24:29.155Z,101109.53
2023-04-04T08:27:04.460Z,101113.97
2023-04-04T08:29:33.381Z,101112.31
2023-04-04T08:32:01.301Z,101111.41
2023-04-04T08:34:28.796Z,101099.69
2023-04-04T08:36:57.078Z,101107.66
2023-04-04T08:39:25.131Z,101094.28
2023-04-04T08:41:58.865Z,101099.75
2023-04-04T08:44:27.593Z,101106.88
2023-04-04T08:46:55.288Z,101100.19
2023-04-04T08:49:22.255Z,101101.38
2023-04-04T08:51:49.389Z,101104.41
2023-04-04T08:54:17.875Z,101102.25
2023-04-04T08:56:46.037Z,101099.16
2023-04-04T08:59:15.745Z,101102.75
2023-04-04T09:01:43.878Z,101095.13
2023-04-04T09:04:11.525Z,101105.53
2023-04-04T09:06:38.651Z,101097.56
2023-04-04T09:09:06.769Z,101094.38
2023-04-04T09:11:35.091Z,101103.13
2023-04-04T09:14:05.144Z,101101.59
2023-04-04T09:16:33.258Z,101095.69
2023-04-04T09:19:00.942Z,101098.22
2023-04-04T09:21:29.345Z,101102.53
2023-04-04T09:24:01.098Z,101089.03
2023-04-04T09:26:28.698Z,101085.59
2023-04-04T09:28:56.925Z,101087.56
2023-04-04T09:31:25.012Z,101092.81
2023-04-04T09:33:52.776Z,101084.34
2023-04-04T09:36:20.752Z,101078.28
2023-04-04T09:38:49.561Z,101084.66
2023-04-04T09:41:16.995Z,101090.06
2023-04-04T09:43:48.568Z,101080.66
2023-04-04T09:46:16.263Z,101090.13
2023-04-04T09:48:43.603Z,101084.00
2023-04-04T09:51:13.423Z,101090.13
2023-04-04T09:53:42.458Z,101085.06
2023-04-04T09:56:12.063Z,101087.16
2023-04-04T09:58:44.281Z,101088.19
2023-04-04T10:01:16.652Z,101082.91
2023-04-04T10:03:44.254Z,101085.38
2023-04-04T10:06:12.488Z,101076.66
2023-04-04T10:08:40.674Z,101081.28
2023-04-04T10:11:11.277Z,101078.88
2023-04-04T10:13:44.766Z,101080.44
2023-04-04T10:16:12.390Z,101079.84
2023-04-04T10:18:39.831Z,101082.63
2023-04-04T10:23:39.094Z,101087.38
2023-04-04T10:26:06.742Z,101078.47
2023-04-04T10:28:34.578Z,101072.50
2023-04-04T10:31:18.299Z,101075.34
2023-04-04T10:34:12.625Z,101078.91
2023-04-04T10:36:46.081Z,101086.88
2023-04-04T10:39:23.925Z,101074.28
2023-04-04T10:41:52.871Z,101081.13
2023-04-04T10:45:06.057Z,101071.66
2023-04-04T10:47:40.882Z,101066.97
2023-04-04T10:50:13.646Z,101061.06
2023-04-04T10:52:42.210Z,101066.91
2023-04-04T10:55:11.115Z,101065.78
2023-04-04T10:57:46.389Z,101065.16
2023-04-04T11:00:18.336Z,101062.91
2023-04-04T11:02:48.336Z,101061.09
2023-04-04T11:05:31.746Z,101057.59
2023-04-04T11:10:42.185Z,101054.94
2023-04-04T11:13:22.890Z,101055.06
2023-04-04T11:16:00.339Z,101050.19
2023-04-04T11:18:34.201Z,101043.34
2023-04-04T11:21:08.089Z,101041.38
2023-04-04T11:23:50.019Z,101030.22
2023-04-04T11:26:46.272Z,101031.59
2023-04-04T11:29:21.249Z,101040.00
2023-04-04T11:31:49.828Z,101039.00
2023-04-04T11:34:30.540Z,101041.13
2023-04-04T11:37:01.816Z,101033.69
2023-04-04T11:39:33.831Z,101027.75
2023-04-04T11:42:09.044Z,101034.03
2023-04-04T11:45:03.630Z,101027.19
2023-04-04T11:47:31.664Z,101023.75
2023-04-04T11:50:01.597Z,101024.63
2023-04-04T11:52:35.591Z,101031.50
2023-04-04T11:55:03.634Z,101017.56
2023-04-04T11:57:31.296Z,101022.66
2023-04-04T11:59:59.028Z,101025.00
2023-04-04T12:02:34.757Z,101016.13
2023-04-04T12:05:02.856Z,101015.25
2023-04-04T12:07:29.639Z,101014.50
2023-04-04T12:09:57.850Z,101010.38
2023-04-04T12:12:31.504Z,101007.13
2023-04-04T12:15:10.487Z,101002.88
2023-04-04T12:17:44.481Z,100995.88
2023-04-04T12:20:13.223Z,101008.03
2023-04-04T12:22:46.781Z,100995.84
2023-04-04T12:25:14.523Z,100999.28
2023-04-04T12:27:42.959Z,100996.41
2023-04-04T12:30:15.860Z,101004.91
2023-04-04T12:32:47.332Z,101001.44
2023-04-04T12:35:15.792Z,100999.78
2023-04-04T12:38:10.874Z,100992.91
2023-04-04T12:40:38.654Z,100990.28
2023-04-04T12:43:27.969Z,100982.88
2023-04-04T12:45:55.794Z,100984.34
2023-04-04T12:48:27.493Z,100985.34
2023-04-04T12:50:59.222Z,100976.66
2023-04-04T12:53:29.413Z,100968.88
2023-04-04T12:56:00.299Z,100968.06
2023-04-04T12:58:27.163Z,100971.31
2023-04-04T13:00:55.634Z,100961.94
2023-04-04T13:03:26.229Z,100959.97
2023-04-04T13:05:54.257Z,100958.50
2023-04-04T13:08:21.398Z,100967.63
2023-04-04T13:11:05.257Z,100964.34
2023-04-04T13:13:40.707Z,100962.44
2023-04-04T13:16:09.077Z,100958.59
2023-04-04T13:18:44.276Z,100951.09
2023-04-04T13:21:13.262Z,100945.03
2023-04-04T13:23:41.399Z,100941.81
2023-04-04T13:26:09.458Z,100942.75
2023-04-04T13:28:37.730Z,100942.34
2023-04-04T13:31:05.689Z,100937.34
2023-04-04T13:33:33.734Z,100927.59
2023-04-04T13:36:01.493Z,100923.28
2023-04-04T13:38:29.902Z,100932.84
2023-04-04T13:41:00.935Z,100932.38
2023-04-04T13:43:28.789Z,100922.78
2023-04-04T13:45:56.352Z,100922.56
2023-04-04T13:48:24.513Z,100921.66
2023-04-04T13:50:53.399Z,100921.66
2023-04-04T13:53:21.284Z,100922.53
2023-04-04T13:58:20.605Z,100919.38
2023-04-04T14:00:50.684Z,100919.34
2023-04-04T14:03:18.855Z,100917.09
2023-04-04T14:05:46.964Z,100920.94
2023-04-04T14:08:14.809Z,100917.72
2023-04-04T14:10:42.428Z,100918.88
2023-04-04T14:13:10.426Z,100921.72
2023-04-04T14:15:39.937Z,100919.94
2023-04-04T14:18:07.951Z,100918.31
2023-04-04T14:20:41.612Z,100910.78
2023-04-04T14:23:09.574Z,100916.31
2023-04-04T14:25:37.103Z,100916.53
2023-04-04T14:28:05.316Z,100917.69
2023-04-04T14:30:33.525Z,100925.59
2023-04-04T14:33:01.355Z,100926.75
2023-04-04T14:35:29.630Z,100916.00
2023-04-04T14:37:59.788Z,100914.59
2023-04-04T14:40:29.617Z,100909.50
2023-04-04T14:42:57.226Z,100919.13
2023-04-04T14:45:25.370Z,100917.16
2023-04-04T14:47:53.620Z,100913.81
2023-04-04T14:50:21.207Z,100915.38
2023-04-04T14:52:51.248Z,100911.69
2023-04-04T14:55:19.677Z,100915.88
2023-04-04T14:58:01.334Z,100912.78
2023-04-04T15:00:30.749Z,100912.06
2023-04-04T15:02:58.984Z,100915.47
2023-04-04T15:05:27.250Z,100913.09
2023-04-04T15:07:55.846Z,100908.16
2023-04-04T15:10:23.971Z,100902.50
2023-04-04T15:12:51.869Z,100908.34
2023-04-04T15:15:20.621Z,100913.31
2023-04-04T15:17:50.203Z,100914.75
2023-04-04T15:20:18.450Z,100910.53
2023-04-04T15:22:46.554Z,100908.00
2023-04-04T15:25:14.123Z,100912.34
2023-04-04T15:27:42.045Z,100901.94
2023-04-04T15:30:13.168Z,100904.53
2023-04-04T15:32:40.838Z,100900.19
2023-04-04T15:35:16.132Z,100900.22
2023-04-04T15:37:44.504Z,100907.19
2023-04-04T15:40:13.418Z,100905.41
2023-04-04T15:42:41.483Z,100908.88
2023-04-04T15:45:11.380Z,100912.28
2023-04-04T15:47:40.232Z,100912.84
2023-04-04T15:50:11.135Z,100906.31
2023-04-04T15:52:39.078Z,100916.59
2023-04-04T15:55:11.799Z,100903.88
2023-04-04T15:57:39.677Z,100903.22
2023-04-04T16:00:09.546Z,100901.38
2023-04-04T16:02:37.471Z,100905.06
2023-04-04T16:05:06.213Z,100907.66
2023-04-04T16:07:34.018Z,100902.16
2023-04-04T16:10:02.201Z,100911.06
2023-04-04T16:12:30.214Z,100907.03
2023-04-04T16:14:57.719Z,100901.13
2023-04-04T16:17:26.276Z,100904.59
2023-04-04T16:19:53.971Z,100902.84
2023-04-04T16:22:22.024Z,100907.03
2023-04-04T16:24:50.156Z,100904.31
2023-04-04T16:27:17.810Z,100914.50
2023-04-04T16:29:46.103Z,100910.91
2023-04-04T16:32:14.262Z,100914.34
2023-04-04T16:34:41.870Z,100913.59
2023-04-04T16:37:11.161Z,100908.47
2023-04-04T16:39:38.697Z,100921.53
2023-04-04T16:42:06.921Z,100918.13
2023-04-04T16:44:34.852Z,100927.66
2023-04-04T16:47:02.887Z,100929.59
2023-04-04T16:49:30.760Z,100930.63
2023-04-04T16:51:58.574Z,100929.84
2023-04-04T16:54:26.655Z,100924.59
2023-04-04T16:56:54.528Z,100925.50
2023-04-04T16:59:22.741Z,100928.91
2023-04-04T17:01:50.470Z,100930.47
2023-04-04T17:04:18.672Z,100932.13
2023-04-04T17:06:47.302Z,100927.44
2023-04-04T17:09:16.248Z,100933.78
2023-04-04T17:11:47.063Z,100928.84
2023-04-04T17:14:16.412Z,100929.03
2023-04-04T17:16:44.904Z,100932.88
2023-04-04T17:19:12.980Z,100944.34
2023-04-04T17:21:41.188Z,100941.38
2023-04-04T17:24:09.333Z,100942.59
2023-04-04T17:26:38.256Z,100939.66
2023-04-04T17:29:06.847Z,100941.63
2023-04-04T17:31:34.553Z,100940.31
2023-04-04T17:34:02.972Z,100943.47
2023-04-04T17:36:32.179Z,100950.03
2023-04-04T17:39:01.276Z,100953.13
2023-04-04T17:41:29.386Z,100958.75
2023-04-04T17:43:57.296Z,100966.16
2023-04-04T17:46:25.901Z,100957.13
2023-04-04T17:48:53.868Z,100962.72
2023-04-04T17:51:21.692Z,100969.28
2023-04-04T17:53:51.328Z,100967.34
2023-04-04T17:56:19.170Z,100973.09
2023-04-04T17:58:48.094Z,100978.91
2023-04-04T18:01:43.360Z,100975.75
2023-04-04T18:04:11.933Z,100976.81
2023-04-04T18:06:41.899Z,100986.88
2023-04-04T18:09:11.045Z,100994.38
2023-04-04T18:11:39.145Z,100998.53
2023-04-04T18:14:06.964Z,101007.91
2023-04-04T18:16:39.657Z,101008.63
2023-04-04T18:19:09.587Z,101017.91
2023-04-04T18:21:38.524Z,101017.72
2023-04-04T18:24:08.026Z,101014.75
2023-04-04T18:26:36.146Z,101017.97
2023-04-04T18:29:04.312Z,101019.59
2023-04-04T18:31:31.581Z,101037.44
2023-04-04T18:33:59.500Z,101036.34
2023-04-04T18:36:27.578Z,101039.75
2023-04-04T18:38:55.214Z,101038.88
2023-04-04T18:41:22.302Z,101046.50
2023-04-04T18:43:50.583Z,101048.91
2023-04-04T18:46:19.113Z,101061.56
2023-04-04T18:48:51.072Z,101066.50
2023-04-04T18:51:20.476Z,101073.28
2023-04-04T18:53:49.417Z,101074.00
2023-04-04T18:56:17.651Z,101066.28
2023-04-04T18:58:45.672Z,101080.84
2023-04-04T19:01:13.595Z,101080.78
2023-04-04T19:03:43.156Z,101088.50
2023-04-04T19:06:11.089Z,101090.13
2023-04-04T19:08:43.228Z,101094.34
2023-04-04T19:11:11.098Z,101098.72
2023-04-04T19:13:38.605Z,101098.44
2023-04-04T19:16:06.601Z,101104.00
2023-04-04T19:18:34.730Z,101108.13
2023-04-04T19:21:02.541Z,101103.69
2023-04-04T19:23:29.956Z,101107.06
2023-04-04T19:26:02.032Z,101109.47
2023-04-04T19:28:29.478Z,101123.75
2023-04-04T19:30:57.628Z,101125.16
2023-04-04T19:33:28.539Z,101132.06
2023-04-04T19:36:01.396Z,101134.66
2023-04-04T19:38:30.628Z,101135.34
2023-04-04T19:41:04.292Z,101135.34
2023-04-04T19:43:31.601Z,101141.44
2023-04-04T19:46:09.572Z,101148.84
2023-04-04T19:48:36.345Z,101145.72
2023-04-04T19:51:22.825Z,101153.78
2023-04-04T19:53:51.793Z,101154.22
2023-04-04T19:56:20.555Z,101157.41
2023-04-04T19:58:49.314Z,101153.97
2023-04-04T20:01:21.529Z,101154.44
2023-04-04T20:03:49.516Z,101161.69
2023-04-04T20:06:29.945Z,101166.41
2023-04-04T20:09:01.213Z,101156.81
2023-04-04T20:11:32.333Z,101169.53
2023-04-04T20:14:01.283Z,101165.88
2023-04-04T20:16:29.910Z,101171.63
2023-04-04T20:18:59.265Z,101171.44
2023-04-04T20:21:28.506Z,101174.75
2023-04-04T20:24:01.283Z,101182.09
2023-04-04T20:26:46.396Z,101185.50
2023-04-04T20:29:15.441Z,101187.84
2023-04-04T20:31:47.641Z,101197.22
2023-04-04T20:34:27.721Z,101199.78
2023-04-04T20:36:55.463Z,101208.31
2023-04-04T20:39:53.134Z,101207.94
2023-04-04T20:42:51.002Z,101210.16
2023-04-04T20:45:27.281Z,101207.75
2023-04-04T20:47:58.391Z,101211.84
2023-04-04T20:50:27.308Z,101209.34
2023-04-04T20:53:00.781Z,101215.53
2023-04-04T20:55:29.663Z,101213.16
2023-04-04T20:58:06.950Z,101212.41
2023-04-04T21:00:36.753Z,101223.25
2023-04-04T21:03:25.450Z,101226.28
2023-04-04T21:06:17.912Z,101232.81
2023-04-04T21:08:48.727Z,101236.34
2023-04-04T21:11:39.479Z,101240.22
2023-04-04T21:14:07.408Z,101242.06
2023-04-04T21:16:34.701Z,101244.91
2023-04-04T21:19:02.530Z,101251.94
2023-04-04T21:21:29.876Z,101261.41
2023-04-04T21:23:57.991Z,101258.97
2023-04-04T21:26:36.932Z,101259.06
2023-04-04T21:29:04.553Z,101265.94
2023-04-04T21:31:59.041Z,101267.41
2023-04-04T21:34:27.338Z,101264.59
2023-04-04T21:37:01.463Z,101261.38
2023-04-04T21:39:30.068Z,101266.78
2023-04-04T21:42:03.695Z,101265.16
2023-04-04T21:44:32.918Z,101264.50
2023-04-04T21:47:00.595Z,101265.44
2023-04-04T21:49:28.379Z,101272.56
2023-04-04T21:51:56.412Z,101266.91
2023-04-04T21:54:24.027Z,101267.84
2023-04-04T21:56:52.117Z,101273.19
2023-04-04T21:59:20.176Z,101267.25
2023-04-04T22:01:48.452Z,101273.94
2023-04-04T22:04:16.468Z,101277.94
2023-04-04T22:06:44.366Z,101284.88
2023-04-04T22:09:11.920Z,101282.91
2023-04-04T22:11:44.214Z,101281.16
2023-04-04T22:14:17.475Z,101286.31
2023-04-04T22:16:45.917Z,101281.81
2023-04-04T22:19:14.346Z,101283.38
2023-04-04T22:21:47.149Z,101287.41
2023-04-04T22:24:15.989Z,101284.47
2023-04-04T22:26:46.011Z,101285.00
2023-04-04T22:29:14.458Z,101278.69
2023-04-04T22:31:42.206Z,101281.91
2023-04-04T22:34:10.787Z,101278.34
2023-04-04T22:36:43.882Z,101282.34
2023-04-04T22:39:12.125Z,101287.19
2023-04-04T22:41:39.731Z,101288.69
2023-04-04T22:44:07.987Z,101295.25
2023-04-04T22:46:36.168Z,101290.84
2023-04-04T22:49:07.226Z,101288.00
2023-04-04T22:51:44.057Z,101292.22
2023-04-04T22:54:14.471Z,101299.78
2023-04-04T22:56:42.302Z,101292.56
2023-04-04T22:59:10.287Z,101298.34
2023-04-04T23:01:38.286Z,101294.63
2023-04-04T23:04:06.436Z,101297.09
2023-04-04T23:06:34.621Z,101293.19
2023-04-04T23:09:03.201Z,101300.72
2023-04-04T23:11:31.521Z,101297.13
2023-04-04T23:14:00.402Z,101310.44
2023-04-04T23:16:28.930Z,101308.59
2023-04-04T23:18:57.236Z,101307.63
2023-04-04T23:21:25.184Z,101313.34
2023-04-04T23:23:52.835Z,101300.28
2023-04-04T23:26:20.481Z,101306.91
2023-04-04T23:28:48.695Z,101297.91
2023-04-04T23:31:17.003Z,101296.00
2023-04-04T23:33:44.645Z,101293.13
2023-04-04T23:36:12.672Z,101291.28
2023-04-04T23:38:40.423Z,101298.88
2023-04-04T23:41:08.527Z,101297.84
2023-04-04T23:43:36.269Z,101296.72
2023-04-04T23:46:03.218Z,101298.13
2023-04-04T23:48:31.279Z,101299.69
2023-04-04T23:51:01.816Z,101307.09
2023-04-04T23:53:29.759Z,101301.72
2023-04-04T23:55:57.901Z,101305.56
2023-04-04T23:58:25.934Z,101302.56
